createdAt,value
2023-04-18T00:01:44.680Z,94916.09
2023-04-18T00:04:12.434Z,94903.94
2023-04-18T00:06:39.558Z,94909.59
2023-04-18T00:09:06.419Z,94904.16
2023-04-18T00:11:33.282Z,94905.13
2023-04-18T00:13:59.912Z,94897.97
2023-04-18T00:16:28.380Z,94899.16
2023-04-18T00:18:55.549Z,94886.03
2023-04-18T00:21:22.740Z,94890.84
2023-04-18T00:23:52.639Z,94889.41
2023-04-18T00:26:19.558Z,94889.66
2023-04-18T00:28:46.248Z,94886.56
2023-04-18T00:31:12.935Z,94881.19
2023-04-18T00:33:39.808Z,94893.06
2023-04-18T00:36:06.715Z,94885.22
2023-04-18T00:38:33.376Z,94885.72
2023-04-18T00:41:00.137Z,94892.66
2023-04-18T00:43:26.985Z,94885.06
2023-04-18T00:45:54.152Z,94889.34
2023-04-18T00:48:21.074Z,94897.31
2023-04-18T00:50:47.722Z,94885.97
2023-04-18T00:53:15.530Z,94886.94
2023-04-18T00:55:42.342Z,94886.69
2023-04-18T00:58:09.393Z,94883.16
2023-04-18T01:00:36.239Z,94876.97
2023-04-18T01:03:03.185Z,94878.44
2023-04-18T01:05:30.053Z,94883.94
2023-04-18T01:08:01.264Z,94882.03
2023-04-18T01:10:29.144Z,94882.28
2023-04-18T01:13:18.629Z,94884.41
2023-04-18T01:15:47.794Z,94882.53
2023-04-18T01:18:18.011Z,94884.16
2023-04-18T01:20:47.571Z,94879.88
2023-04-18T01:23:15.437Z,94885.38
2023-04-18T01:25:42.596Z,94884.41
2023-04-18T01:28:09.747Z,94881.56
2023-04-18T01:30:36.797Z,94876.97
2023-04-18T01:33:05.166Z,94886.47
2023-04-18T01:35:32.963Z,94874.34
2023-04-18T01:38:00.104Z,94880.03
2023-04-18T01:40:26.896Z,94880.72
2023-04-18T01:42:56.386Z,94878.84
2023-04-18T01:45:23.061Z,94875.31
2023-04-18T01:47:49.761Z,94878.16
2023-04-18T01:50:16.414Z,94869.13
2023-04-18T01:52:43.069Z,94872.19
2023-04-18T01:55:10.251Z,94863.88
2023-04-18T01:57:36.960Z,94866.75
2023-04-18T02:00:08.196Z,94872.72
2023-04-18T02:02:34.931Z,94859.34
2023-04-18T02:05:01.740Z,94856.19
2023-04-18T02:07:28.434Z,94864.56
2023-04-18T02:09:55.188Z,94863.84
2023-04-18T02:12:21.762Z,94866.47
2023-04-18T02:14:52.277Z,94858.38
2023-04-18T02:17:21.517Z,94863.84
2023-04-18T02:19:48.292Z,94865.47
2023-04-18T02:22:14.939Z,94863.84
2023-04-18T02:24:41.648Z,94864.84
2023-04-18T02:27:08.500Z,94861.50
2023-04-18T02:29:38.057Z,94856.97
2023-04-18T02:32:05.107Z,94868.84
2023-04-18T02:34:33.753Z,94859.94
2023-04-18T02:37:00.524Z,94866.16
2023-04-18T02:39:27.238Z,94860.94
2023-04-18T02:41:53.838Z,94859.75
2023-04-18T02:44:20.486Z,94864.72
2023-04-18T02:46:47.097Z,94853.78
2023-04-18T02:49:13.697Z,94861.44
2023-04-18T02:51:40.283Z,94860.97
2023-04-18T02:54:06.837Z,94869.53
2023-04-18T02:56:33.687Z,94860.72
2023-04-18T02:59:00.357Z,94863.09
2023-04-18T03:01:26.975Z,94863.81
2023-04-18T03:03:53.726Z,94858.03
2023-04-18T03:06:20.326Z,94859.44
2023-04-18T03:08:46.918Z,94854.88
2023-04-18T03:11:13.482Z,94848.91
2023-04-18T03:13:40.059Z,94854.69
2023-04-18T03:16:07.174Z,94851.69
2023-04-18T03:18:33.776Z,94847.47
2023-04-18T03:21:00.827Z,94843.94
2023-04-18T03:23:27.414Z,94844.41
2023-04-18T03:25:54.147Z,94841.78
2023-04-18T03:28:20.817Z,94837.00
2023-04-18T03:30:47.650Z,94836.44
2023-04-18T03:33:17.225Z,94837.69
2023-04-18T03:35:43.818Z,94844.59
2023-04-18T03:38:10.514Z,94847.72
2023-04-18T03:40:37.095Z,94838.13
2023-04-18T03:43:03.699Z,94838.44
2023-04-18T03:45:30.475Z,94842.66
2023-04-18T03:47:57.119Z,94842.91
2023-04-18T03:50:25.853Z,94845.63
2023-04-18T03:52:52.724Z,94837.22
2023-04-18T03:55:19.907Z,94839.16
2023-04-18T03:57:47.341Z,94846.84
2023-04-18T04:00:14.691Z,94851.56
2023-04-18T04:02:41.608Z,94850.00
2023-04-18T04:05:09.032Z,94845.22
2023-04-18T04:07:36.030Z,94863.38
2023-04-18T04:10:02.798Z,94859.19
2023-04-18T04:12:29.432Z,94857.78
2023-04-18T04:14:56.019Z,94854.91
2023-04-18T04:17:22.645Z,94857.31
2023-04-18T04:19:50.338Z,94853.94
2023-04-18T04:22:17.260Z,94859.22
2023-04-18T04:24:44.176Z,94853.06
2023-04-18T04:27:12.538Z,94857.84
2023-04-18T04:29:39.764Z,94851.69
2023-04-18T04:32:06.715Z,94857.16
2023-04-18T04:34:34.477Z,94851.44
2023-04-18T04:37:01.548Z,94852.34
2023-04-18T04:39:28.277Z,94847.38
2023-04-18T04:41:55.246Z,94859.44
2023-04-18T04:44:22.058Z,94858.19
2023-04-18T04:46:49.793Z,94862.34
2023-04-18T04:49:16.401Z,94865.44
2023-04-18T04:51:43.050Z,94859.63
2023-04-18T04:54:09.652Z,94861.00
2023-04-18T04:56:36.880Z,94863.53
2023-04-18T04:59:06.274Z,94868.78
2023-04-18T05:01:33.765Z,94867.66
2023-04-18T05:04:00.493Z,94868.41
2023-04-18T05:06:27.683Z,94862.03
2023-04-18T05:08:56.001Z,94864.81
2023-04-18T05:11:22.575Z,94867.72
2023-04-18T05:13:49.310Z,94877.56
2023-04-18T05:16:16.034Z,94865.31
2023-04-18T05:18:42.840Z,94865.88
2023-04-18T05:21:09.588Z,94876.19
2023-04-18T05:23:37.167Z,94872.47
2023-04-18T05:26:05.255Z,94866.13
2023-04-18T05:28:32.390Z,94870.69
2023-04-18T05:31:01.898Z,94870.97
2023-04-18T05:33:29.606Z,94869.97
2023-04-18T05:35:57.231Z,94870.47
2023-04-18T05:38:24.132Z,94867.16
2023-04-18T05:40:55.914Z,94879.06
2023-04-18T05:43:23.080Z,94870.53
2023-04-18T05:45:52.348Z,94871.53
2023-04-18T05:48:19.387Z,94873.38
2023-04-18T05:50:46.145Z,94884.94
2023-04-18T05:53:12.962Z,94879.84
2023-04-18T05:55:41.006Z,94876.13
2023-04-18T05:58:07.868Z,94889.41
2023-04-18T06:00:34.842Z,94888.88
2023-04-18T06:03:01.521Z,94883.25
2023-04-18T06:05:28.871Z,94892.78
2023-04-18T06:07:55.707Z,94900.56
2023-04-18T06:10:22.408Z,94897.38
2023-04-18T06:12:49.014Z,94905.97
2023-04-18T06:15:15.572Z,94899.22
2023-04-18T06:17:42.404Z,94905.56
2023-04-18T06:20:09.709Z,94905.25
2023-04-18T06:22:36.736Z,94902.75
2023-04-18T06:25:03.658Z,94898.25
2023-04-18T06:27:31.943Z,94905.97
2023-04-18T06:29:58.983Z,94905.94
2023-04-18T06:32:25.797Z,94907.22
2023-04-18T06:34:53.297Z,94900.06
2023-04-18T06:37:20.425Z,94907.59
2023-04-18T06:39:47.225Z,94908.69
2023-04-18T06:42:13.953Z,94908.81
2023-04-18T06:44:42.886Z,94920.63
2023-04-18T06:47:11.135Z,94908.97
2023-04-18T06:49:37.736Z,94903.75
2023-04-18T06:52:04.382Z,94912.44
2023-04-18T06:54:31.005Z,94909.72
2023-04-18T06:56:57.669Z,94918.88
2023-04-18T06:59:24.298Z,94918.63
2023-04-18T07:01:51.298Z,94924.03
2023-04-18T07:04:18.191Z,94917.53
2023-04-18T07:06:45.314Z,94927.03
2023-04-18T07:09:11.971Z,94917.97
2023-04-18T07:11:40.581Z,94921.34
2023-04-18T07:14:07.213Z,94919.28
2023-04-18T07:16:34.613Z,94921.09
2023-04-18T07:19:01.348Z,94927.03
2023-04-18T07:21:28.125Z,94918.50
2023-04-18T07:23:54.789Z,94930.16
2023-04-18T07:26:21.405Z,94931.31
2023-04-18T07:28:49.176Z,94925.97
2023-04-18T07:31:16.796Z,94927.09
2023-04-18T07:33:43.669Z,94930.88
2023-04-18T07:36:10.468Z,94931.03
2023-04-18T07:38:37.195Z,94928.53
2023-04-18T07:41:04.089Z,94933.59
2023-04-18T07:43:30.693Z,94922.75
2023-04-18T07:45:57.441Z,94933.41
2023-04-18T07:48:25.530Z,94940.88
2023-04-18T07:50:52.343Z,94935.38
2023-04-18T07:53:19.042Z,94936.09
2023-04-18T07:55:46.694Z,94926.19
2023-04-18T07:58:13.557Z,94926.69
2023-04-18T08:00:42.444Z,94929.72
2023-04-18T08:03:12.665Z,94927.19
2023-04-18T08:05:40.479Z,94920.88
2023-04-18T08:08:08.999Z,94928.03
2023-04-18T08:10:36.093Z,94929.22
2023-04-18T08:13:03.503Z,94934.38
2023-04-18T08:15:32.415Z,94936.59
2023-04-18T08:18:00.028Z,94934.56
2023-04-18T08:20:27.065Z,94932.22
2023-04-18T08:23:06.135Z,94938.16
2023-04-18T08:25:36.535Z,94936.75
2023-04-18T08:28:04.166Z,94938.66
2023-04-18T08:30:31.195Z,94942.41
2023-04-18T08:32:58.141Z,94942.69
2023-04-18T08:35:24.695Z,94942.19
2023-04-18T08:37:51.352Z,94937.84
2023-04-18T08:40:18.654Z,94940.22
2023-04-18T08:42:45.537Z,94936.09
2023-04-18T08:45:15.358Z,94943.03
2023-04-18T08:47:42.521Z,94945.44
2023-04-18T08:50:10.731Z,94944.50
2023-04-18T08:52:39.771Z,94952.06
2023-04-18T08:55:07.436Z,94944.50
2023-04-18T08:57:36.067Z,94950.31
2023-04-18T09:00:10.289Z,94960.47
2023-04-18T09:02:43.741Z,94956.19
2023-04-18T09:05:21.621Z,94958.56
2023-04-18T09:07:50.087Z,94958.34
2023-04-18T09:10:38.541Z,94961.25
2023-04-18T09:13:05.633Z,94969.19
2023-04-18T09:15:32.423Z,94963.31
2023-04-18T09:18:02.497Z,94954.22
2023-04-18T09:20:44.582Z,94957.44
2023-04-18T09:23:14.883Z,94965.28
2023-04-18T09:25:44.460Z,94954.81
2023-04-18T09:28:30.531Z,94955.84
2023-04-18T09:31:19.165Z,94961.38
2023-04-18T09:33:57.029Z,94963.03
2023-04-18T09:36:27.317Z,94961.59
2023-04-18T09:38:56.997Z,94957.81
2023-04-18T09:41:24.293Z,94957.81
2023-04-18T09:44:12.376Z,94958.75
2023-04-18T09:46:40.900Z,94953.28
2023-04-18T09:49:10.865Z,94959.94
2023-04-18T09:51:40.394Z,94966.91
2023-04-18T09:54:08.786Z,94957.84
2023-04-18T09:56:38.024Z,94966.31
2023-04-18T09:59:09.447Z,94958.94
2023-04-18T10:01:36.613Z,94963.53
2023-04-18T10:04:06.814Z,94963.78
2023-04-18T10:06:39.748Z,94965.94
2023-04-18T10:09:09.272Z,94954.25
2023-04-18T10:11:36.559Z,94969.69
2023-04-18T10:14:07.038Z,94958.06
2023-04-18T10:16:35.646Z,94967.81
2023-04-18T10:19:21.311Z,94969.69
2023-04-18T10:21:55.026Z,94971.66
2023-04-18T10:24:50.318Z,94970.72
2023-04-18T10:27:17.892Z,94977.66
2023-04-18T10:29:50.182Z,94975.06
2023-04-18T10:32:22.345Z,94976.25
2023-04-18T10:34:50.289Z,94981.97
2023-04-18T10:37:18.940Z,94973.63
2023-04-18T10:40:00.417Z,94976.25
2023-04-18T10:42:45.628Z,94979.59
2023-04-18T10:45:22.891Z,94983.41
2023-04-18T10:47:49.760Z,94981.22
2023-04-18T10:50:17.414Z,94977.63
2023-04-18T10:52:44.889Z,94975.03
2023-04-18T10:55:16.639Z,94972.44
2023-04-18T10:57:44.557Z,94971.00
2023-04-18T11:00:14.088Z,94969.81
2023-04-18T11:02:47.852Z,94964.56
2023-04-18T11:05:18.346Z,94967.63
2023-04-18T11:07:46.257Z,94961.19
2023-04-18T11:10:13.517Z,94965.50
2023-04-18T11:12:41.082Z,94961.91
2023-04-18T11:15:22.897Z,94958.78
2023-04-18T11:18:02.067Z,94954.53
2023-04-18T11:20:30.403Z,94955.72
2023-04-18T11:22:58.780Z,94964.34
2023-04-18T11:25:29.020Z,94960.31
2023-04-18T11:27:59.469Z,94965.28
2023-04-18T11:30:26.201Z,94955.28
2023-04-18T11:32:54.133Z,94965.03
2023-04-18T11:35:20.872Z,94965.28
2023-04-18T11:37:49.886Z,94961.97
2023-04-18T11:40:16.578Z,94967.22
2023-04-18T11:42:43.303Z,94971.06
2023-04-18T11:45:14.335Z,94968.63
2023-04-18T11:47:43.143Z,94973.66
2023-04-18T11:50:12.364Z,94975.56
2023-04-18T11:52:41.574Z,94968.63
2023-04-18T11:55:21.153Z,94965.09
2023-04-18T11:57:55.871Z,94975.09
2023-04-18T12:00:31.587Z,94972.44
2023-04-18T12:02:59.329Z,94973.44
2023-04-18T12:05:28.192Z,94984.91
2023-04-18T12:07:55.541Z,94975.78
2023-04-18T12:10:22.137Z,94977.25
2023-04-18T12:12:54.734Z,94977.00
2023-04-18T12:15:24.308Z,94972.22
2023-04-18T12:17:53.783Z,94974.38
2023-04-18T12:20:20.454Z,94973.66
2023-04-18T12:22:51.367Z,94970.09
2023-04-18T12:25:26.278Z,94978.69
2023-04-18T12:28:01.362Z,94977.00
2023-04-18T12:30:34.149Z,94983.69
2023-04-18T12:33:04.238Z,94977.00
2023-04-18T12:35:31.922Z,94971.03
2023-04-18T12:38:02.824Z,94972.19
2023-04-18T12:40:30.378Z,94975.81
2023-04-18T12:42:56.951Z,94979.88
2023-04-18T12:45:24.099Z,94974.34
2023-04-18T12:47:52.218Z,94976.00
2023-04-18T12:50:25.947Z,94971.19
2023-04-18T12:52:59.076Z,94969.31
2023-04-18T12:55:26.422Z,94968.56
2023-04-18T12:57:57.995Z,94967.59
2023-04-18T13:00:27.834Z,94973.38
2023-04-18T13:02:54.563Z,94966.66
2023-04-18T13:05:24.806Z,94971.44
2023-04-18T13:07:58.579Z,94970.69
2023-04-18T13:10:28.545Z,94972.16
2023-04-18T13:12:55.674Z,94959.44
2023-04-18T13:15:22.753Z,94960.38
2023-04-18T13:17:49.825Z,94965.88
2023-04-18T13:20:16.634Z,94965.44
2023-04-18T13:22:43.508Z,94962.50
2023-04-18T13:25:10.942Z,94968.00
2023-04-18T13:27:41.386Z,94963.22
2023-04-18T13:30:10.674Z,94960.06
2023-04-18T13:32:39.256Z,94960.56
2023-04-18T13:35:08.543Z,94963.91
2023-04-18T13:37:35.586Z,94964.91
2023-04-18T13:40:05.593Z,94962.28
2023-04-18T13:42:33.767Z,94963.00
2023-04-18T13:45:00.348Z,94967.75
2023-04-18T13:47:27.243Z,94964.16
2023-04-18T13:49:53.958Z,94964.41
2023-04-18T13:52:20.623Z,94960.84
2023-04-18T13:54:50.370Z,94964.63
2023-04-18T13:57:16.954Z,94964.16
2023-04-18T13:59:43.898Z,94958.91
2023-04-18T14:02:11.103Z,94965.63
2023-04-18T14:04:38.165Z,94962.69
2023-04-18T14:07:06.502Z,94956.72
2023-04-18T14:09:33.284Z,94964.38
2023-04-18T14:11:59.994Z,94970.28
2023-04-18T14:14:26.800Z,94970.97
2023-04-18T14:16:54.189Z,94963.91
2023-04-18T14:19:21.026Z,94969.56
2023-04-18T14:21:48.455Z,94968.78
2023-04-18T14:24:15.378Z,94969.28
2023-04-18T14:26:42.207Z,94972.59
2023-04-18T14:29:11.784Z,94968.97
2023-04-18T14:31:42.372Z,94967.31
2023-04-18T14:34:11.447Z,94969.94
2023-04-18T14:36:39.109Z,94972.13
2023-04-18T14:39:07.518Z,94976.28
2023-04-18T14:41:35.449Z,94972.72
2023-04-18T14:44:10.222Z,94968.63
2023-04-18T14:46:38.630Z,94977.22
2023-04-18T14:49:05.812Z,94971.03
2023-04-18T14:51:32.818Z,94976.28
2023-04-18T14:54:06.611Z,94976.56
2023-04-18T14:56:34.109Z,94974.13
2023-04-18T14:59:02.426Z,94973.91
2023-04-18T15:01:29.676Z,94972.94
2023-04-18T15:03:56.719Z,94974.63
2023-04-18T15:06:23.458Z,94978.19
2023-04-18T15:08:50.408Z,94973.19
2023-04-18T15:11:16.945Z,94976.56
2023-04-18T15:13:44.709Z,94973.66
2023-04-18T15:16:11.554Z,94985.13
2023-04-18T15:18:38.314Z,94989.00
2023-04-18T15:21:06.984Z,94980.84
2023-04-18T15:23:34.176Z,94987.28
2023-04-18T15:26:00.974Z,94985.66
2023-04-18T15:28:28.507Z,94987.53
2023-04-18T15:30:55.166Z,94975.63
2023-04-18T15:33:21.884Z,94991.63
2023-04-18T15:35:48.582Z,94991.41
2023-04-18T15:38:15.437Z,94978.28
2023-04-18T15:40:43.603Z,94987.31
2023-04-18T15:43:17.356Z,94989.53
2023-04-18T15:45:44.712Z,94983.97
2023-04-18T15:48:13.144Z,94995.00
2023-04-18T15:50:40.101Z,94998.38
2023-04-18T15:53:06.886Z,95003.41
2023-04-18T15:55:34.366Z,95003.16
2023-04-18T15:58:01.727Z,95008.50
2023-04-18T16:00:29.632Z,95006.75
2023-04-18T16:02:56.473Z,95006.28
2023-04-18T16:05:23.405Z,95012.31
2023-04-18T16:07:50.077Z,95005.38
2023-04-18T16:10:16.815Z,95021.66
2023-04-18T16:12:43.527Z,95015.41
2023-04-18T16:15:11.205Z,95013.75
2023-04-18T16:17:38.504Z,95022.84
2023-04-18T16:20:09.206Z,95021.66
2023-04-18T16:22:37.417Z,95025.97
2023-04-18T16:25:04.688Z,95027.88
2023-04-18T16:27:33.071Z,95022.38
2023-04-18T16:29:59.754Z,95020.97
2023-04-18T16:32:26.527Z,95033.88
2023-04-18T16:34:53.204Z,95028.13
2023-04-18T16:37:20.095Z,95034.38
2023-04-18T16:39:47.000Z,95033.69
2023-04-18T16:42:15.489Z,95031.47
2023-04-18T16:44:42.812Z,95021.19
2023-04-18T16:47:09.535Z,95031.50
2023-04-18T16:49:39.124Z,95024.78
2023-04-18T16:52:05.770Z,95030.78
2023-04-18T16:54:32.423Z,95029.13
2023-04-18T16:56:59.104Z,95035.56
2023-04-18T16:59:26.073Z,95017.88
2023-04-18T17:01:52.864Z,95029.63
2023-04-18T17:04:19.618Z,95028.88
2023-04-18T17:06:46.686Z,95036.06
2023-04-18T17:09:14.699Z,95031.50
2023-04-18T17:11:41.758Z,95035.34
2023-04-18T17:14:08.901Z,95032.25
2023-04-18T17:16:38.817Z,95032.72
2023-04-18T17:19:05.826Z,95031.50
2023-04-18T17:21:34.696Z,95027.44
2023-04-18T17:24:03.828Z,95027.94
2023-04-18T17:26:31.179Z,95029.34
2023-04-18T17:28:57.805Z,95031.50
2023-04-18T17:31:24.486Z,95029.56
2023-04-18T17:33:51.083Z,95027.19
2023-04-18T17:36:17.730Z,95023.81
2023-04-18T17:38:50.719Z,95020.00
2023-04-18T17:41:19.286Z,95029.00
2023-04-18T17:43:46.694Z,95028.34
2023-04-18T17:46:14.339Z,95025.94
2023-04-18T17:48:41.382Z,95035.94
2023-04-18T17:51:08.041Z,95039.34
2023-04-18T17:53:34.588Z,95038.63
2023-04-18T17:56:01.253Z,95034.50
2023-04-18T17:58:28.434Z,95042.59
2023-04-18T18:00:55.175Z,95037.56
2023-04-18T18:03:21.970Z,95047.84
2023-04-18T18:05:49.836Z,95043.28
2023-04-18T18:08:17.234Z,95046.84
2023-04-18T18:10:46.562Z,95045.47
2023-04-18T18:13:13.435Z,95053.00
2023-04-18T18:15:40.006Z,95053.47
2023-04-18T18:18:06.796Z,95053.47
2023-04-18T18:20:33.502Z,95060.13
2023-04-18T18:23:00.107Z,95056.50
2023-04-18T18:25:27.545Z,95068.56
2023-04-18T18:27:54.606Z,95070.47
2023-04-18T18:30:21.291Z,95075.97
2023-04-18T18:32:47.959Z,95072.78
2023-04-18T18:35:14.564Z,95082.00
2023-04-18T18:37:41.167Z,95083.97
2023-04-18T18:40:08.671Z,95078.94
2023-04-18T18:42:35.466Z,95089.34
2023-04-18T18:45:03.608Z,95091.38
2023-04-18T18:47:30.653Z,95094.56
2023-04-18T18:49:57.437Z,95097.03
2023-04-18T18:52:30.399Z,95095.34
2023-04-18T18:55:03.968Z,95095.03
2023-04-18T18:57:34.541Z,95095.28
2023-04-18T19:00:12.243Z,95100.28
2023-04-18T19:02:46.942Z,95099.94
2023-04-18T19:05:24.424Z,95100.28
2023-04-18T19:07:52.918Z,95104.41
2023-04-18T19:10:24.256Z,95100.38
2023-04-18T19:12:53.522Z,95108.72
2023-04-18T19:15:28.189Z,95106.84
2023-04-18T19:18:08.276Z,95115.09
2023-04-18T19:20:35.294Z,95110.34
2023-04-18T19:23:07.423Z,95112.59
2023-04-18T19:25:46.696Z,95114.06
2023-04-18T19:28:20.552Z,95118.06
2023-04-18T19:30:51.000Z,95116.59
2023-04-18T19:33:19.824Z,95122.38
2023-04-18T19:35:46.836Z,95107.72
2023-04-18T19:38:19.176Z,95116.47
2023-04-18T19:41:12.356Z,95121.81
2023-04-18T19:43:43.411Z,95111.81
2023-04-18T19:46:15.737Z,95111.34
2023-04-18T19:48:42.915Z,95115.78
2023-04-18T19:51:12.931Z,95119.66
2023-04-18T19:53:45.622Z,95121.34
2023-04-18T19:56:29.128Z,95125.16
2023-04-18T19:59:02.296Z,95116.59
2023-04-18T20:01:31.672Z,95122.56
2023-04-18T20:04:01.533Z,95117.84
2023-04-18T20:06:30.560Z,95119.97
2023-04-18T20:08:57.655Z,95119.97
2023-04-18T20:11:31.134Z,95124.75
2023-04-18T20:14:02.843Z,95126.47
2023-04-18T20:16:35.611Z,95121.22
2023-04-18T20:19:03.924Z,95118.56
2023-04-18T20:21:31.442Z,95134.34
2023-04-18T20:23:59.368Z,95128.59
2023-04-18T20:26:33.700Z,95125.22
2023-04-18T20:29:04.304Z,95127.13
2023-04-18T20:31:36.433Z,95120.22
2023-04-18T20:34:03.537Z,95126.22
2023-04-18T20:36:41.847Z,95124.31
2023-04-18T20:39:09.585Z,95128.09
2023-04-18T20:41:37.284Z,95128.09
2023-04-18T20:44:11.803Z,95123.84
2023-04-18T20:46:43.636Z,95116.69
2023-04-18T20:49:11.203Z,95115.50
2023-04-18T20:51:49.495Z,95128.38
2023-04-18T20:54:17.120Z,95121.94
2023-04-18T20:56:43.883Z,95128.16
2023-04-18T20:59:10.559Z,95119.31
2023-04-18T21:01:40.122Z,95119.06
2023-04-18T21:04:07.072Z,95124.56
2023-04-18T21:06:33.832Z,95123.59
2023-04-18T21:09:00.505Z,95113.09
2023-04-18T21:11:27.100Z,95117.44
2023-04-18T21:13:53.742Z,95114.44
2023-04-18T21:16:20.307Z,95112.53
2023-04-18T21:18:46.903Z,95116.81
2023-04-18T21:21:13.743Z,95110.88
2023-04-18T21:23:44.283Z,95114.25
2023-04-18T21:26:13.894Z,95119.22
2023-04-18T21:28:53.800Z,95120.16
2023-04-18T21:31:20.674Z,95111.34
2023-04-18T21:33:48.044Z,95123.28
2023-04-18T21:36:14.742Z,95116.38
2023-04-18T21:38:41.295Z,95112.34
2023-04-18T21:41:07.959Z,95116.34
2023-04-18T21:43:34.694Z,95112.19
2023-04-18T21:46:01.335Z,95111.03
2023-04-18T21:48:27.995Z,95114.81
2023-04-18T21:50:55.527Z,95110.56
2023-04-18T21:53:22.178Z,95106.75
2023-04-18T21:55:48.835Z,95109.06
2023-04-18T21:58:15.420Z,95116.53
2023-04-18T22:00:42.002Z,95112.94
2023-04-18T22:03:08.993Z,95112.72
2023-04-18T22:05:36.510Z,95106.03
2023-04-18T22:08:03.427Z,95112.00
2023-04-18T22:10:30.007Z,95110.09
2023-04-18T22:12:57.644Z,95108.09
2023-04-18T22:15:24.353Z,95098.75
2023-04-18T22:17:51.016Z,95100.91
2023-04-18T22:20:17.662Z,95100.44
2023-04-18T22:22:44.349Z,95104.25
2023-04-18T22:25:11.752Z,95098.78
2023-04-18T22:27:39.179Z,95098.22
2023-04-18T22:30:06.391Z,95097.00
2023-04-18T22:32:33.015Z,95099.44
2023-04-18T22:34:59.601Z,95094.78
2023-04-18T22:37:26.193Z,95099.19
2023-04-18T22:39:55.572Z,95103.19
2023-04-18T22:42:22.132Z,95105.88
2023-04-18T22:44:48.726Z,95103.44
2023-04-18T22:47:15.335Z,95099.19
2023-04-18T22:49:42.115Z,95102.25
2023-04-18T22:52:08.686Z,95104.69
2023-04-18T22:54:39.432Z,95110.88
2023-04-18T22:57:06.077Z,95110.03
2023-04-18T22:59:32.701Z,95109.88
2023-04-18T23:01:59.546Z,95110.88
2023-04-18T23:04:30.177Z,95110.38
2023-04-18T23:06:56.957Z,95099.84
2023-04-18T23:09:24.490Z,95104.16
2023-04-18T23:11:51.190Z,95105.81
2023-04-18T23:14:17.794Z,95104.16
2023-04-18T23:16:44.611Z,95113.94
2023-04-18T23:19:11.345Z,95112.19
2023-04-18T23:21:37.941Z,95105.78
2023-04-18T23:24:04.674Z,95104.13
2023-04-18T23:26:31.359Z,95106.00
2023-04-18T23:28:58.129Z,95100.03
2023-04-18T23:31:24.874Z,95098.16
2023-04-18T23:33:51.455Z,95103.59
2023-04-18T23:36:18.103Z,95095.28
2023-04-18T23:38:44.733Z,95104.78
2023-04-18T23:41:11.419Z,95096.66
2023-04-18T23:43:38.072Z,95095.41
2023-04-18T23:46:04.966Z,95090.91
2023-04-18T23:48:31.574Z,95092.78
2023-04-18T23:50:58.264Z,95093.06
2023-04-18T23:53:25.180Z,95086.91
2023-04-18T23:55:53.325Z,95090.94
2023-04-18T23:58:19.899Z,95085.94
